Wetterdaten: Woche 23.08.04 - 29.08.04 (KW35)
Datum Zeit Temperatur Luftfeuchte Luftdruck Niederschlag Taupunkt Windchill Wind
23.08.2004 00:00 11,8 C 80 % 1021 hPa 0,0 l/m 8,5 C 11,7 C 2,7 km/h (1 Bft)
23.08.2004 01:00 11,8 C 82 % 1021 hPa 0,0 l/m 8,8 C 11,6 C 4,3 km/h (1 Bft)
23.08.2004 02:00 12,0 C 82 % 1021 hPa 0,0 l/m 8,9 C 11,9 C 0,7 km/h (0 Bft)
23.08.2004 03:00 11,4 C 84 % 1021 hPa 0,0 l/m 8,7 C 11,3 C 3,3 km/h (1 Bft)
23.08.2004 04:00 10,5 C 87 % 1020 hPa 0,0 l/m 8,3 C 10,5 C 1,1 km/h (0 Bft)
23.08.2004 05:00 9,8 C 90 % 1020 hPa 0,0 l/m 8,3 C 9,8 C 0,7 km/h (0 Bft)
23.08.2004 06:00 9,5 C 93 % 1020 hPa 0,0 l/m 8,4 C 9,4 C 0,9 km/h (0 Bft)
23.08.2004 07:00 10,1 C 94 % 1020 hPa 0,0 l/m 9,2 C 10,1 C 0,0 km/h (0 Bft)
23.08.2004 08:00 11,7 C 91 % 1020 hPa 0,0 l/m 10,2 C 11,7 C 0,0 km/h (0 Bft)
23.08.2004 09:00 13,6 C 84 % 1021 hPa 0,0 l/m 11,0 C 13,6 C 0,2 km/h (0 Bft)
23.08.2004 10:00 17,1 C 73 % 1021 hPa 0,0 l/m 12,2 C 17,0 C 2,0 km/h (1 Bft)
23.08.2004 11:00 19,2 C 66 % 1021 hPa 0,0 l/m 12,7 C 18,8 C 3,2 km/h (1 Bft)
23.08.2004 12:00 22,1 C 52 % 1021 hPa 0,0 l/m 11,8 C 22,1 C 0,3 km/h (0 Bft)
23.08.2004 13:00 23,4 C 44 % 1021 hPa 0,0 l/m 10,3 C 22,9 C 4,9 km/h (1 Bft)
23.08.2004 14:00 24,9 C 33 % 1020 hPa 0,0 l/m 7,4 C 23,3 C 15,8 km/h (3 Bft)
23.08.2004 15:00 25,1 C 31 % 1020 hPa 0,0 l/m 6,9 C 23,4 C 16,6 km/h (3 Bft)
23.08.2004 16:00 25,1 C 32 % 1019 hPa 0,0 l/m 7,3 C 23,7 C 15,2 km/h (3 Bft)
23.08.2004 17:00 25,1 C 34 % 1019 hPa 0,0 l/m 8,2 C 24,3 C 11,2 km/h (2 Bft)
23.08.2004 18:00 25,1 C 37 % 1019 hPa 0,0 l/m 9,5 C 24,7 C 7,0 km/h (2 Bft)
23.08.2004 19:00 22,7 C 52 % 1018 hPa 0,0 l/m 12,3 C 22,7 C 0,0 km/h (0 Bft)
23.08.2004 20:00 19,8 C 62 % 1018 hPa 0,0 l/m 12,3 C 19,8 C 0,0 km/h (0 Bft)
23.08.2004 21:00 18,0 C 68 % 1018 hPa 0,0 l/m 12,1 C 17,8 C 2,3 km/h (1 Bft)
23.08.2004 22:00 17,3 C 71 % 1018 hPa 0,0 l/m 12,0 C 17,3 C 0,2 km/h (0 Bft)
23.08.2004 23:00 16,1 C 77 % 1018 hPa 0,0 l/m 12,1 C 16,0 C 0,9 km/h (0 Bft)
24.08.2004 00:00 15,0 C 84 % 1018 hPa 0,0 l/m 12,2 C 15,0 C 0,0 km/h (0 Bft)
24.08.2004 01:00 14,3 C 88 % 1018 hPa 0,0 l/m 12,4 C 14,3 C 0,0 km/h (0 Bft)
24.08.2004 02:00 14,1 C 91 % 1018 hPa 0,0 l/m 12,8 C 14,1 C 0,0 km/h (0 Bft)
24.08.2004 03:00 14,4 C 92 % 1018 hPa 0,0 l/m 13,2 C 13,7 C 6,4 km/h (2 Bft)
24.08.2004 04:00 16,5 C 80 % 1018 hPa 0,0 l/m 13,1 C 15,0 C 11,0 km/h (2 Bft)
24.08.2004 05:00 17,4 C 77 % 1018 hPa 1,0 l/m 13,3 C 17,0 C 5,3 km/h (1 Bft)
24.08.2004 06:00 16,0 C 90 % 1018 hPa 0,0 l/m 14,4 C 15,9 C 2,4 km/h (1 Bft)
24.08.2004 07:00 15,6 C 95 % 1018 hPa 0,0 l/m 14,7 C 15,3 C 3,8 km/h (1 Bft)
24.08.2004 08:00 15,7 C 96 % 1018 hPa 0,0 l/m 15,0 C 15,0 C 7,6 km/h (2 Bft)
24.08.2004 09:00 16,3 C 98 % 1018 hPa 0,0 l/m 16,0 C 15,0 C 9,8 km/h (2 Bft)
24.08.2004 10:00 17,2 C 94 % 1016 hPa 0,0 l/m 16,2 C 15,5 C 11,4 km/h (2 Bft)
24.08.2004 11:00 17,5 C 91 % 1017 hPa 0,0 l/m 16,1 C 17,0 C 4,9 km/h (1 Bft)
24.08.2004 12:00 17,4 C 92 % 1016 hPa 3,0 l/m 16,1 C 14,3 C 16,1 km/h (3 Bft)
24.08.2004 13:00 17,1 C 91 % 1017 hPa 0,0 l/m 15,7 C 14,4 C 14,4 km/h (3 Bft)
24.08.2004 14:00 17,6 C 86 % 1017 hPa 0,0 l/m 15,3 C 15,4 C 14,1 km/h (3 Bft)
24.08.2004 15:00 19,5 C 68 % 1016 hPa 0,0 l/m 13,4 C 15,8 C 22,0 km/h (4 Bft)
24.08.2004 16:00 19,5 C 68 % 1016 hPa 0,0 l/m 13,5 C 16,2 C 21,7 km/h (4 Bft)
24.08.2004 17:00 20,1 C 51 % 1016 hPa 0,0 l/m 9,6 C 16,6 C 21,9 km/h (4 Bft)
24.08.2004 18:00 18,8 C 56 % 1017 hPa 0,0 l/m 9,8 C 15,4 C 18,9 km/h (3 Bft)
24.08.2004 19:00 17,6 C 63 % 1017 hPa 0,0 l/m 10,6 C 15,8 C 12,6 km/h (3 Bft)
24.08.2004 20:00 16,2 C 71 % 1017 hPa 0,0 l/m 10,8 C 14,4 C 11,6 km/h (2 Bft)
24.08.2004 21:00 15,5 C 72 % 1018 hPa 0,0 l/m 10,5 C 13,2 C 13,2 km/h (3 Bft)
24.08.2004 22:00 15,1 C 77 % 1018 hPa 0,0 l/m 11,0 C 13,3 C 11,5 km/h (2 Bft)
24.08.2004 23:00 14,8 C 82 % 1018 hPa 0,0 l/m 11,8 C 12,5 C 12,9 km/h (3 Bft)
25.08.2004 00:00 15,0 C 80 % 1018 hPa 0,0 l/m 11,6 C 13,3 C 11,2 km/h (2 Bft)
25.08.2004 01:00 14,7 C 84 % 1018 hPa 0,0 l/m 12,0 C 12,9 C 11,9 km/h (2 Bft)
25.08.2004 02:00 14,2 C 90 % 1018 hPa 0,0 l/m 12,6 C 12,0 C 12,8 km/h (3 Bft)
25.08.2004 03:00 14,3 C 88 % 1017 hPa 0,0 l/m 12,4 C 13,0 C 10,4 km/h (2 Bft)
25.08.2004 04:00 14,3 C 89 % 1017 hPa 0,0 l/m 12,4 C 12,8 C 10,7 km/h (2 Bft)
25.08.2004 05:00 14,3 C 87 % 1017 hPa 0,0 l/m 12,2 C 12,8 C 9,4 km/h (2 Bft)
25.08.2004 06:00 14,1 C 86 % 1017 hPa 0,0 l/m 11,8 C 12,8 C 8,7 km/h (2 Bft)
25.08.2004 07:00 13,7 C 92 % 1017 hPa 0,0 l/m 12,4 C 12,9 C 6,3 km/h (2 Bft)
25.08.2004 08:00 14,0 C 90 % 1017 hPa 0,0 l/m 12,4 C 14,0 C 0,7 km/h (0 Bft)
25.08.2004 09:00 16,0 C 66 % 1017 hPa 0,0 l/m 9,6 C 16,0 C 0,0 km/h (0 Bft)
25.08.2004 10:00 17,2 C 59 % 1017 hPa 0,0 l/m 9,2 C 17,1 C 0,4 km/h (0 Bft)
25.08.2004 11:00 18,5 C 58 % 1016 hPa 0,0 l/m 10,0 C 16,6 C 11,8 km/h (2 Bft)
25.08.2004 12:00 18,7 C 55 % 1015 hPa 0,0 l/m 9,4 C 15,4 C 19,0 km/h (3 Bft)
25.08.2004 13:00 18,7 C 56 % 1015 hPa 0,0 l/m 9,6 C 16,0 C 16,0 km/h (3 Bft)
25.08.2004 14:00 20,1 C 47 % 1014 hPa 0,0 l/m 8,6 C 16,6 C 23,3 km/h (4 Bft)
25.08.2004 15:00 20,0 C 48 % 1014 hPa 0,0 l/m 8,8 C 17,4 C 17,5 km/h (3 Bft)
25.08.2004 16:00 19,6 C 53 % 1013 hPa 0,0 l/m 9,8 C 17,3 C 15,7 km/h (3 Bft)
25.08.2004 17:00 18,8 C 57 % 1013 hPa 0,0 l/m 10,2 C 16,7 C 13,2 km/h (3 Bft)
25.08.2004 18:00 18,7 C 55 % 1013 hPa 0,0 l/m 9,5 C 16,2 C 16,0 km/h (3 Bft)
25.08.2004 19:00 18,0 C 57 % 1013 hPa 1,0 l/m 9,3 C 17,2 C 5,4 km/h (1 Bft)
25.08.2004 20:00 16,9 C 62 % 1013 hPa 0,0 l/m 9,5 C 15,2 C 11,4 km/h (2 Bft)
25.08.2004 21:00 16,2 C 60 % 1014 hPa 0,0 l/m 8,5 C 15,4 C 5,3 km/h (1 Bft)
25.08.2004 22:00 15,3 C 63 % 1014 hPa 0,0 l/m 8,2 C 14,6 C 7,9 km/h (2 Bft)
25.08.2004 23:00 14,3 C 68 % 1014 hPa 0,0 l/m 8,6 C 14,3 C 0,9 km/h (0 Bft)
26.08.2004 00:00 14,1 C 73 % 1014 hPa 0,0 l/m 9,2 C 14,0 C 0,5 km/h (0 Bft)
26.08.2004 01:00 13,1 C 86 % 1014 hPa 1,0 l/m 10,8 C 12,5 C 4,4 km/h (1 Bft)
26.08.2004 02:00 12,5 C 95 % 1014 hPa 0,0 l/m 11,7 C 11,2 C 9,6 km/h (2 Bft)
26.08.2004 03:00 12,5 C 96 % 1013 hPa 0,0 l/m 12,0 C 12,4 C 1,6 km/h (1 Bft)
26.08.2004 04:00 12,2 C 94 % 1013 hPa 0,0 l/m 11,3 C 12,2 C 0,0 km/h (0 Bft)
26.08.2004 05:00 12,1 C 95 % 1013 hPa 0,0 l/m 11,4 C 12,1 C 0,0 km/h (0 Bft)
26.08.2004 06:00 12,2 C 96 % 1013 hPa 0,0 l/m 11,5 C 12,2 C 0,2 km/h (0 Bft)
26.08.2004 07:00 12,2 C 95 % 1013 hPa 0,0 l/m 11,4 C 12,2 C 0,0 km/h (0 Bft)
26.08.2004 08:00 12,4 C 94 % 1013 hPa 1,0 l/m 11,5 C 12,4 C 0,0 km/h (0 Bft)
26.08.2004 09:00 12,7 C 94 % 1013 hPa 0,0 l/m 11,7 C 12,7 C 0,0 km/h (0 Bft)
26.08.2004 10:00 13,8 C 88 % 1013 hPa 0,0 l/m 11,7 C 13,8 C 0,0 km/h (0 Bft)
26.08.2004 11:00 14,4 C 81 % 1013 hPa 0,0 l/m 11,2 C 14,4 C 0,0 km/h (0 Bft)
26.08.2004 12:00 14,0 C 82 % 1013 hPa 0,0 l/m 11,0 C 14,0 C 0,0 km/h (0 Bft)
26.08.2004 13:00 13,8 C 87 % 1013 hPa 0,0 l/m 11,6 C 13,8 C 0,0 km/h (0 Bft)
26.08.2004 14:00 16,0 C 74 % 1013 hPa 0,0 l/m 11,4 C 16,0 C 0,0 km/h (0 Bft)
26.08.2004 15:00 16,4 C 68 % 1013 hPa 0,0 l/m 10,5 C 16,4 C 0,0 km/h (0 Bft)
26.08.2004 16:00 15,8 C 73 % 1017 hPa 0,0 l/m 11,0 C 12,8 C 13,4 km/h (3 Bft)
26.08.2004 17:00 15,9 C 74 % 1018 hPa 0,0 l/m 11,3 C 13,1 C 14,0 km/h (3 Bft)
26.08.2004 18:00 15,6 C 77 % 1018 hPa 0,0 l/m 11,6 C 13,0 C 13,3 km/h (3 Bft)
26.08.2004 19:00 15,1 C 80 % 1019 hPa 0,0 l/m 11,6 C 12,2 C 14,3 km/h (3 Bft)
26.08.2004 20:00 13,6 C 82 % 1019 hPa 9,0 l/m 10,5 C 11,3 C 12,4 km/h (3 Bft)
26.08.2004 21:00 11,7 C 92 % 1020 hPa 5,0 l/m 10,5 C 10,6 C 7,4 km/h (2 Bft)
26.08.2004 22:00 11,8 C 96 % 1020 hPa 0,0 l/m 11,2 C 10,8 C 9,7 km/h (2 Bft)
26.08.2004 23:00 12,0 C 97 % 1020 hPa 0,0 l/m 11,5 C 10,7 C 9,8 km/h (2 Bft)
27.08.2004 00:00 12,4 C 98 % 1020 hPa 0,0 l/m 12,0 C 11,9 C 7,1 km/h (2 Bft)
27.08.2004 01:00 12,5 C 98 % 1021 hPa 0,0 l/m 12,2 C 12,1 C 6,5 km/h (2 Bft)
27.08.2004 02:00 12,5 C 98 % 1020 hPa 0,0 l/m 12,2 C 12,0 C 7,0 km/h (2 Bft)
27.08.2004 03:00 12,3 C 98 % 1020 hPa 0,0 l/m 12,0 C 10,8 C 10,2 km/h (2 Bft)
27.08.2004 04:00 12,1 C 98 % 1020 hPa 0,0 l/m 11,8 C 11,0 C 8,8 km/h (2 Bft)
27.08.2004 05:00 11,8 C 98 % 1020 hPa 0,0 l/m 11,5 C 10,5 C 10,0 km/h (2 Bft)
27.08.2004 06:00 11,7 C 98 % 1020 hPa 0,0 l/m 11,4 C 10,7 C 9,3 km/h (2 Bft)
27.08.2004 07:00 11,8 C 98 % 1020 hPa 0,0 l/m 11,5 C 10,7 C 7,7 km/h (2 Bft)
27.08.2004 08:00 12,5 C 97 % 1020 hPa 0,0 l/m 12,1 C 10,2 C 12,1 km/h (2 Bft)
27.08.2004 09:00 13,7 C 92 % 1020 hPa 0,0 l/m 12,4 C 10,5 C 14,9 km/h (3 Bft)
27.08.2004 10:00 14,9 C 82 % 1020 hPa 0,0 l/m 11,8 C 11,9 C 15,5 km/h (3 Bft)
27.08.2004 11:00 16,8 C 71 % 1019 hPa 0,0 l/m 11,4 C 14,3 C 14,3 km/h (3 Bft)
27.08.2004 12:00 18,1 C 62 % 1019 hPa 0,0 l/m 10,7 C 15,7 C 13,7 km/h (3 Bft)
27.08.2004 13:00 19,6 C 54 % 1018 hPa 0,0 l/m 10,0 C 17,1 C 18,0 km/h (3 Bft)
27.08.2004 14:00 20,4 C 49 % 1018 hPa 0,0 l/m 9,3 C 18,6 C 11,6 km/h (2 Bft)
27.08.2004 15:00 20,7 C 47 % 1017 hPa 0,0 l/m 9,0 C 19,4 C 8,0 km/h (2 Bft)
27.08.2004 16:00 20,8 C 47 % 1016 hPa 0,0 l/m 9,0 C 18,9 C 14,2 km/h (3 Bft)
27.08.2004 17:00 20,8 C 47 % 1016 hPa 0,0 l/m 9,1 C 19,1 C 13,1 km/h (3 Bft)
27.08.2004 18:00 20,6 C 48 % 1016 hPa 0,0 l/m 9,3 C 19,2 C 11,7 km/h (2 Bft)
27.08.2004 19:00 18,6 C 57 % 1016 hPa 0,0 l/m 9,8 C 18,2 C 6,3 km/h (2 Bft)
27.08.2004 20:00 16,4 C 67 % 1016 hPa 0,0 l/m 10,3 C 16,4 C 3,6 km/h (1 Bft)
27.08.2004 21:00 15,2 C 72 % 1016 hPa 0,0 l/m 10,2 C 14,6 C 6,7 km/h (2 Bft)
27.08.2004 22:00 14,3 C 76 % 1016 hPa 0,0 l/m 10,2 C 14,3 C 0,5 km/h (0 Bft)
27.08.2004 23:00 13,1 C 82 % 1016 hPa 0,0 l/m 10,1 C 13,1 C 0,0 km/h (0 Bft)
28.08.2004 00:00 12,1 C 87 % 1016 hPa 0,0 l/m 10,0 C 12,1 C 0,0 km/h (0 Bft)
28.08.2004 01:00 11,3 C 91 % 1017 hPa 0,0 l/m 9,8 C 11,3 C 0,0 km/h (0 Bft)
28.08.2004 02:00 10,7 C 93 % 1017 hPa 0,0 l/m 9,6 C 10,7 C 0,0 km/h (0 Bft)
28.08.2004 03:00 10,5 C 95 % 1017 hPa 0,0 l/m 9,7 C 10,5 C 0,0 km/h (0 Bft)
28.08.2004 04:00 11,1 C 97 % 1016 hPa 0,0 l/m 10,6 C 11,1 C 0,0 km/h (0 Bft)
28.08.2004 05:00 11,7 C 98 % 1016 hPa 0,0 l/m 11,4 C 11,7 C 1,0 km/h (0 Bft)
28.08.2004 06:00 11,3 C 98 % 1016 hPa 0,0 l/m 11,0 C 11,3 C 0,0 km/h (0 Bft)
28.08.2004 07:00 11,5 C 98 % 1016 hPa 0,0 l/m 11,2 C 11,5 C 2,0 km/h (1 Bft)
28.08.2004 08:00 13,3 C 98 % 1017 hPa 0,0 l/m 13,0 C 12,9 C 6,5 km/h (2 Bft)
28.08.2004 09:00 16,1 C 81 % 1016 hPa 0,0 l/m 12,7 C 13,2 C 15,6 km/h (3 Bft)
28.08.2004 10:00 18,6 C 63 % 1016 hPa 0,0 l/m 11,5 C 15,5 C 19,2 km/h (3 Bft)
28.08.2004 11:00 19,8 C 57 % 1016 hPa 0,0 l/m 11,0 C 17,6 C 12,0 km/h (2 Bft)
28.08.2004 12:00 21,2 C 53 % 1016 hPa 0,0 l/m 11,3 C 18,9 C 16,8 km/h (3 Bft)
28.08.2004 13:00 22,2 C 47 % 1016 hPa 0,0 l/m 10,4 C 20,0 C 16,8 km/h (3 Bft)
28.08.2004 14:00 23,4 C 43 % 1015 hPa 0,0 l/m 10,1 C 22,1 C 12,5 km/h (3 Bft)
28.08.2004 15:00 24,0 C 42 % 1015 hPa 0,0 l/m 10,2 C 22,8 C 12,3 km/h (3 Bft)
28.08.2004 16:00 23,8 C 42 % 1015 hPa 0,0 l/m 10,2 C 22,8 C 11,9 km/h (2 Bft)
28.08.2004 17:00 24,1 C 42 % 1015 hPa 0,0 l/m 10,5 C 23,3 C 11,1 km/h (2 Bft)
28.08.2004 18:00 23,9 C 44 % 1015 hPa 0,0 l/m 11,0 C 23,4 C 9,8 km/h (2 Bft)
28.08.2004 19:00 21,4 C 55 % 1015 hPa 0,0 l/m 12,1 C 21,4 C 3,4 km/h (1 Bft)
28.08.2004 20:00 19,3 C 65 % 1016 hPa 0,0 l/m 12,6 C 19,3 C 4,5 km/h (1 Bft)
28.08.2004 21:00 17,9 C 70 % 1017 hPa 0,0 l/m 12,4 C 17,9 C 0,6 km/h (0 Bft)
28.08.2004 22:00 16,3 C 76 % 1017 hPa 0,0 l/m 12,1 C 16,3 C 0,0 km/h (0 Bft)
28.08.2004 23:00 15,5 C 81 % 1017 hPa 0,0 l/m 12,3 C 15,5 C 0,0 km/h (0 Bft)
29.08.2004 00:00 14,7 C 85 % 1017 hPa 0,0 l/m 12,1 C 14,7 C 0,0 km/h (0 Bft)
29.08.2004 01:00 14,2 C 89 % 1017 hPa 0,0 l/m 12,3 C 14,2 C 0,0 km/h (0 Bft)
29.08.2004 02:00 13,8 C 92 % 1017 hPa 0,0 l/m 12,5 C 13,8 C 0,0 km/h (0 Bft)
29.08.2004 03:00 13,9 C 93 % 1017 hPa 0,0 l/m 12,9 C 13,9 C 0,0 km/h (0 Bft)
29.08.2004 04:00 14,0 C 94 % 1017 hPa 0,0 l/m 13,0 C 14,0 C 0,0 km/h (0 Bft)
29.08.2004 05:00 13,7 C 95 % 1017 hPa 0,0 l/m 12,8 C 13,7 C 0,0 km/h (0 Bft)
29.08.2004 06:00 13,6 C 95 % 1017 hPa 0,0 l/m 12,8 C 13,6 C 0,0 km/h (0 Bft)
29.08.2004 07:00 14,0 C 95 % 1017 hPa 0,0 l/m 13,2 C 14,0 C 1,2 km/h (1 Bft)
29.08.2004 08:00 15,0 C 92 % 1018 hPa 0,0 l/m 13,6 C 14,3 C 7,3 km/h (2 Bft)
29.08.2004 09:00 16,9 C 79 % 1018 hPa 0,0 l/m 13,2 C 15,5 C 10,1 km/h (2 Bft)
29.08.2004 10:00 18,1 C 75 % 1018 hPa 0,0 l/m 13,6 C 16,2 C 12,3 km/h (3 Bft)
29.08.2004 11:00 19,3 C 69 % 1018 hPa 0,0 l/m 13,4 C 17,2 C 14,6 km/h (3 Bft)
29.08.2004 12:00 20,1 C 67 % 1018 hPa 0,0 l/m 13,6 C 18,0 C 14,0 km/h (3 Bft)
29.08.2004 13:00 21,5 C 59 % 1018 hPa 0,0 l/m 13,1 C 19,5 C 14,0 km/h (3 Bft)
29.08.2004 14:00 21,0 C 60 % 1017 hPa 0,0 l/m 13,1 C 19,4 C 13,0 km/h (3 Bft)
29.08.2004 15:00 21,6 C 56 % 1017 hPa 0,0 l/m 12,3 C 19,7 C 15,0 km/h (3 Bft)
29.08.2004 16:00 21,7 C 55 % 1017 hPa 0,0 l/m 12,2 C 19,9 C 15,5 km/h (3 Bft)
29.08.2004 17:00 19,6 C 65 % 1017 hPa 0,0 l/m 12,8 C 17,9 C 12,7 km/h (3 Bft)
29.08.2004 18:00 19,3 C 62 % 1016 hPa 0,0 l/m 11,8 C 17,8 C 12,3 km/h (3 Bft)
29.08.2004 19:00 17,8 C 70 % 1017 hPa 0,0 l/m 12,1 C 17,3 C 7,9 km/h (2 Bft)
29.08.2004 20:00 16,8 C 74 % 1017 hPa 0,0 l/m 12,2 C 15,5 C 10,7 km/h (2 Bft)
29.08.2004 21:00 16,4 C 80 % 1017 hPa 0,0 l/m 12,9 C 15,2 C 10,1 km/h (2 Bft)
29.08.2004 22:00 16,1 C 82 % 1018 hPa 0,0 l/m 13,1 C 14,1 C 12,6 km/h (3 Bft)
29.08.2004 23:00 15,5 C 89 % 1018 hPa 0,0 l/m 13,7 C 13,9 C 10,5 km/h (2 Bft)
Min-Datum _ 23.08.04 23.08.04 25.08.04 - 23.08.04 26.08.04 23.08.04
_ Min-Zeit 06:17 15:16 17:00 - 15:16 21:12 00:01
Minimum _ 9,4 C 30 % 1013 hPa - 6,5 C 7,1 C 0,0 km/h (0 Bft)
Max-Datum _ 23.08.04 24.08.04 23.08.04 26.08.04 24.08.04 23.08.04 25.08.04
_ Max-Zeit 15:20 09:03 00:00 20:46 11:54 15:19 14:02
Maximum _ 25,5 C 98 % 1021 hPa 9,0 l/m 16,6 C 25,4 C 49,4 km/h
SW (6 Bft)
Durchschnitt _ 16,2 C 76 % 1017 hPa #21,0 l/m 11,4 C 15,2 C 7,6 km/h (2 Bft)

Durchschnitt Minimum Temp.15,6 C
Durchschnitt Maximum Temp.16,9 C